Time;durP1;ratioP1;P1;durP2;ratioP2;P2;SDS_P1;SDS_P2;PMS_P1;PMS_P2;Temp;Humidity;BMP_temperature;BMP_pressure;BME280_temperature;BME280_humidity;BME280_pressure;Samples;Min_cycle;Max_cycle;Signal;HPM_P1;HPM_P2
2022/08/01 00:01:50;;;;;;;;;;;;;;;18.46;94.11;99233.59;4974121;28;847;-66
2022/08/01 00:04:17;;;;;;;;;;;;;;;18.40;94.57;99239.03;4974228;28;799;-66
2022/08/01 00:06:43;;;;;;;;;;;;;;;18.30;94.69;99227.06;4974131;28;886;-66
2022/08/01 00:09:10;;;;;;;;;;;;;;;18.11;95.06;99233.94;4972765;28;1898;-66
2022/08/01 00:11:36;;;;;;;;;;;;;;;17.90;95.64;99233.66;4974007;28;796;-66
2022/08/01 00:14:09;;;;;;;;;;;;;;;17.74;96.30;99228.34;4973968;28;881;-67
2022/08/01 00:16:35;;;;;;;;;;;;;;;17.60;96.83;99228.97;4956567;28;1375;-66
2022/08/01 00:19:01;;;;;;;;;;;;;;;17.52;97.25;99220.13;4956427;28;1304;-66
2022/08/01 00:21:27;;;;;;;;;;;;;;;17.44;97.13;99228.00;4974139;28;815;-66
2022/08/01 00:23:54;;;;;;;;;;;;;;;17.48;97.31;99225.09;4973838;28;878;-67
2022/08/01 00:26:20;;;;;;;;;;;;;;;17.43;96.83;99223.69;4973684;28;902;-66
2022/08/01 00:28:47;;;;;;;;;;;;;;;17.51;96.08;99224.91;4973707;28;890;-66
2022/08/01 00:31:14;;;;;;;;;;;;;;;17.78;90.38;99222.63;4973651;28;2001;-66
2022/08/01 00:33:41;;;;;;;;;;;;;;;18.72;75.09;99228.34;4973561;28;852;-65
2022/08/01 00:36:07;;;;;;;;;;;;;;;19.62;66.72;99221.94;4973630;28;820;-66
2022/08/01 00:38:34;;;;;;;;;;;;;;;20.17;61.34;99218.69;4973597;28;873;-66
2022/08/01 00:41:00;;;;;;;;;;;;;;;20.53;58.30;99216.75;4973500;28;820;-67
2022/08/01 00:43:27;;;;;;;;;;;;;;;20.85;56.26;99219.06;4973420;28;815;-67
2022/08/01 00:45:53;;;;;;;;;;;;;;;20.99;55.23;99219.03;4973294;28;1243;-69
2022/08/01 00:48:20;;;;;;;;;;;;;;;21.14;53.72;99210.53;4973348;28;866;-66
2022/08/01 00:50:47;;;;;;;;;;;;;;;21.18;53.86;99210.34;4973288;28;1973;-66
2022/08/01 00:53:13;;;;;;;;;;;;;;;21.17;53.13;99222.84;4973286;28;835;-66
2022/08/01 00:55:40;;;;;;;;;;;;;;;21.17;52.98;99217.22;4973172;28;850;-66
2022/08/01 00:58:07;;;;;;;;;;;;;;;21.12;53.00;99210.28;4973200;28;851;-67
2022/08/01 01:00:34;;;;;;;;;;;;;;;20.96;53.52;99210.81;4973453;28;878;-66
2022/08/01 01:03:01;;;;;;;;;;;;;;;20.86;53.97;99215.75;4972910;28;866;-66
2022/08/01 01:05:28;;;;;;;;;;;;;;;20.74;54.35;99211.22;4973039;28;871;-67
2022/08/01 01:08:08;;;;;;;;;;;;;;;20.60;54.67;99205.16;4973082;28;811;-68
2022/08/01 01:10:52;;;;;;;;;;;;;;;20.54;54.68;99200.69;4973044;28;1949;-67
2022/08/01 01:13:34;;;;;;;;;;;;;;;20.47;55.00;99198.28;4973244;28;803;-67
2022/08/01 01:16:06;;;;;;;;;;;;;;;20.36;54.74;99194.03;4972983;28;800;-67
2022/08/01 01:18:38;;;;;;;;;;;;;;;20.39;54.39;99195.09;4972857;28;803;-67
2022/08/01 01:21:17;;;;;;;;;;;;;;;20.51;53.87;99184.81;4972869;28;812;-66
2022/08/01 01:23:49;;;;;;;;;;;;;;;20.58;53.39;99188.03;4972822;28;792;-66
2022/08/01 01:26:16;;;;;;;;;;;;;;;20.58;53.49;99184.44;4972848;28;863;-65
2022/08/01 01:29:00;;;;;;;;;;;;;;;20.74;52.68;99185.94;4972834;28;846;-66
2022/08/01 01:31:27;;;;;;;;;;;;;;;20.92;52.23;99190.56;4972836;28;922;-66
2022/08/01 01:33:55;;;;;;;;;;;;;;;20.99;52.02;99181.72;4972802;28;890;-66
2022/08/01 01:36:24;;;;;;;;;;;;;;;21.07;51.80;99179.28;4972761;28;819;-66
2022/08/01 01:38:51;;;;;;;;;;;;;;;21.17;51.39;99175.09;4971435;28;1388;-66
2022/08/01 01:41:18;;;;;;;;;;;;;;;21.13;51.63;99166.84;4972666;28;815;-66
2022/08/01 01:43:45;;;;;;;;;;;;;;;21.09;51.46;99168.34;4972970;28;862;-66
2022/08/01 01:46:15;;;;;;;;;;;;;;;21.09;51.53;99168.34;4972287;28;1420;-66
2022/08/01 01:48:44;;;;;;;;;;;;;;;21.04;51.68;99164.19;4973011;28;819;-66
2022/08/01 01:51:12;;;;;;;;;;;;;;;20.98;51.61;99164.09;4972653;28;1910;-66
2022/08/01 01:53:39;;;;;;;;;;;;;;;20.93;51.67;99164.81;4972635;28;855;-67
2022/08/01 01:56:06;;;;;;;;;;;;;;;20.84;52.17;99161.34;4972649;28;819;-67
2022/08/01 01:58:34;;;;;;;;;;;;;;;20.73;52.08;99164.75;4972541;28;817;-67
2022/08/01 02:01:01;;;;;;;;;;;;;;;20.64;52.45;99167.69;4972569;28;867;-67
2022/08/01 02:03:28;;;;;;;;;;;;;;;20.57;52.36;99166.84;4972556;28;799;-67
2022/08/01 02:05:55;;;;;;;;;;;;;;;20.56;52.17;99164.47;4955172;28;1175;-67
2022/08/01 02:08:23;;;;;;;;;;;;;;;20.63;52.05;99161.28;4972427;28;839;-67
2022/08/01 02:13:38;;;;;;;;;;;;;;;20.50;52.64;99163.63;4972452;28;622;-67
2022/08/01 02:16:05;;;;;;;;;;;;;;;20.46;52.74;99168.66;4958265;28;1401;-67
2022/08/01 02:18:33;;;;;;;;;;;;;;;20.37;53.02;99166.72;4976180;28;839;-67
2022/08/01 02:21:04;;;;;;;;;;;;;;;20.23;53.51;99159.09;4976019;28;839;-67
2022/08/01 02:23:33;;;;;;;;;;;;;;;20.21;53.42;99156.78;4975984;28;792;-66
2022/08/01 02:26:00;;;;;;;;;;;;;;;20.08;53.83;99162.69;4976144;28;902;-68
2022/08/01 02:28:34;;;;;;;;;;;;;;;19.94;54.11;99164.22;4975958;28;839;-67
2022/08/01 02:31:06;;;;;;;;;;;;;;;19.94;54.04;99160.66;4975779;28;1886;-68
2022/08/01 02:33:36;;;;;;;;;;;;;;;19.94;53.99;99164.22;4958467;28;1363;-66
2022/08/01 02:36:03;;;;;;;;;;;;;;;19.87;54.30;99153.38;4975830;28;882;-67
2022/08/01 02:38:31;;;;;;;;;;;;;;;19.69;54.87;99157.09;4975939;28;839;-68
2022/08/01 02:40:59;;;;;;;;;;;;;;;19.65;54.91;99162.13;4958366;28;1291;-68
2022/08/01 02:43:28;;;;;;;;;;;;;;;19.58;55.22;99159.69;4975615;28;894;-67
2022/08/01 02:45:58;;;;;;;;;;;;;;;19.37;56.09;99153.97;4975393;28;1258;-67
2022/08/01 02:48:25;;;;;;;;;;;;;;;19.30;56.37;99159.91;4975554;28;914;-66
2022/08/01 02:50:54;;;;;;;;;;;;;;;19.31;56.22;99166.28;4975412;28;1914;-67
2022/08/01 02:53:22;;;;;;;;;;;;;;;19.17;56.57;99159.38;4975658;28;823;-67
2022/08/01 02:55:50;;;;;;;;;;;;;;;18.96;57.38;99166.81;4975459;28;839;-67
2022/08/01 02:58:18;;;;;;;;;;;;;;;18.89;57.62;99162.34;4975444;28;859;-67
2022/08/01 03:00:45;;;;;;;;;;;;;;;18.80;57.93;99168.00;4975348;28;819;-67
2022/08/01 03:03:13;;;;;;;;;;;;;;;18.80;58.20;99172.81;4975289;28;827;-67
2022/08/01 03:05:40;;;;;;;;;;;;;;;18.77;58.37;99168.91;4975254;28;851;-67
2022/08/01 03:08:08;;;;;;;;;;;;;;;18.64;58.64;99162.78;4975411;28;832;-67
2022/08/01 03:10:36;;;;;;;;;;;;;;;18.54;59.20;99162.03;4975412;28;1894;-67
2022/08/01 03:13:04;;;;;;;;;;;;;;;18.47;59.38;99162.38;4975683;28;898;-67
2022/08/01 03:15:32;;;;;;;;;;;;;;;18.47;59.57;99165.94;4975112;28;902;-67
2022/08/01 03:18:00;;;;;;;;;;;;;;;18.47;59.67;99163.13;4974998;28;857;-67
2022/08/01 03:20:29;;;;;;;;;;;;;;;18.41;59.73;99170.63;4975095;28;802;-67
2022/08/01 03:22:57;;;;;;;;;;;;;;;18.35;59.98;99173.28;4974982;28;827;-67
2022/08/01 03:25:25;;;;;;;;;;;;;;;18.26;60.58;99175.34;4974638;28;803;-67
2022/08/01 03:27:56;;;;;;;;;;;;;;;18.29;60.33;99172.38;4974929;28;831;-68
2022/08/01 03:30:25;;;;;;;;;;;;;;;18.47;59.34;99163.13;4974747;28;1894;-67
2022/08/01 03:32:51;;;;;;;;;;;;;;;18.83;57.78;99161.44;4975197;28;1032;-66
2022/08/01 03:35:19;;;;;;;;;;;;;;;18.97;57.38;99163.56;4974772;28;874;-67
2022/08/01 03:37:46;;;;;;;;;;;;;;;18.91;57.56;99162.66;4974675;28;846;-67
2022/08/01 03:40:23;;;;;;;;;;;;;;;18.94;56.72;99166.53;4974662;28;869;-67
2022/08/01 03:42:52;;;;;;;;;;;;;;;19.06;56.55;99161.97;4974636;28;889;-67
2022/08/01 03:45:23;;;;;;;;;;;;;;;19.00;56.98;99164.63;4974479;28;807;-67
2022/08/01 03:47:54;;;;;;;;;;;;;;;19.00;57.02;99164.63;4974603;28;895;-67
2022/08/01 03:50:22;;;;;;;;;;;;;;;19.10;56.68;99165.34;4974402;28;1922;-67
2022/08/01 03:52:50;;;;;;;;;;;;;;;19.26;55.75;99164.16;4974629;28;851;-67
2022/08/01 03:55:19;;;;;;;;;;;;;;;19.37;55.66;99162.38;4974664;28;910;-67
2022/08/01 03:57:47;;;;;;;;;;;;;;;19.44;55.45;99169.63;4974247;28;851;-67
2022/08/01 04:00:18;;;;;;;;;;;;;;;19.49;55.45;99160.53;4956903;28;1224;-67
2022/08/01 04:02:46;;;;;;;;;;;;;;;19.50;55.49;99153.69;4974990;28;847;-67
2022/08/01 04:05:13;;;;;;;;;;;;;;;19.47;55.87;99165.09;4974269;28;890;-67
2022/08/01 04:07:40;;;;;;;;;;;;;;;19.45;56.16;99164.78;4974364;28;902;-67
2022/08/01 04:10:06;;;;;;;;;;;;;;;19.45;56.53;99171.16;4974230;28;1922;-67
2022/08/01 04:12:34;;;;;;;;;;;;;;;19.50;56.49;99172.53;4974284;28;927;-67
2022/08/01 04:15:00;;;;;;;;;;;;;;;19.58;56.56;99170.91;4974286;28;1021;-67
2022/08/01 04:17:27;;;;;;;;;;;;;;;19.64;56.94;99183.00;4974181;28;804;-67
2022/08/01 04:19:53;;;;;;;;;;;;;;;19.73;57.17;99184.97;4974364;28;880;-67
2022/08/01 04:22:19;;;;;;;;;;;;;;;19.87;56.72;99183.47;4974024;28;826;-67
2022/08/01 04:24:50;;;;;;;;;;;;;;;19.96;56.56;99174.97;4973803;28;815;-67
2022/08/01 04:27:29;;;;;;;;;;;;;;;20.07;56.75;99180.75;4973828;28;791;-67
2022/08/01 04:29:58;;;;;;;;;;;;;;;20.19;56.65;99178.94;4973637;28;1894;-67
2022/08/01 04:32:26;;;;;;;;;;;;;;;20.37;56.65;99178.72;4973828;28;1027;-67
2022/08/01 04:34:55;;;;;;;;;;;;;;;20.49;55.91;99176.88;4973630;28;883;-67
2022/08/01 04:37:22;;;;;;;;;;;;;;;20.69;54.42;99189.47;4973251;28;950;-68
2022/08/01 04:39:52;;;;;;;;;;;;;;;20.82;54.57;99181.47;4973808;28;979;-67
2022/08/01 04:42:18;;;;;;;;;;;;;;;20.95;54.37;99184.75;4973717;28;823;-67
2022/08/01 04:44:48;;;;;;;;;;;;;;;21.12;53.57;99189.81;4973614;28;812;-67
2022/08/01 04:47:15;;;;;;;;;;;;;;;21.28;52.44;99183.66;4973280;28;1275;-67
2022/08/01 04:49:43;;;;;;;;;;;;;;;21.42;53.14;99179.25;4973246;28;1983;-67
2022/08/01 04:52:12;;;;;;;;;;;;;;;21.55;52.72;99178.88;4973343;28;847;-67
2022/08/01 04:54:39;;;;;;;;;;;;;;;21.77;53.01;99176.34;4973299;28;899;-68
2022/08/01 04:57:06;;;;;;;;;;;;;;;22.07;51.88;99178.16;4973215;28;804;-68
2022/08/01 04:59:41;;;;;;;;;;;;;;;22.55;50.61;99171.94;4973183;28;835;-68
2022/08/01 05:02:08;;;;;;;;;;;;;;;22.81;48.79;99169.81;4955896;28;1502;-68
2022/08/01 05:04:35;;;;;;;;;;;;;;;22.74;48.07;99167.47;4973157;28;807;-67
2022/08/01 05:07:02;;;;;;;;;;;;;;;22.71;47.70;99171.28;4973127;28;878;-68
2022/08/01 05:09:28;;;;;;;;;;;;;;;22.72;48.09;99169.25;4955545;28;1899;-67
2022/08/01 05:11:58;;;;;;;;;;;;;;;22.77;46.98;99168.53;4973040;28;824;-67
2022/08/01 05:14:25;;;;;;;;;;;;;;;22.87;46.96;99161.38;4973138;28;831;-68
2022/08/01 05:16:52;;;;;;;;;;;;;;;22.97;47.09;99159.16;4973267;28;843;-67
2022/08/01 05:19:19;;;;;;;;;;;;;;;23.09;45.96;99160.03;4972971;28;800;-67
2022/08/01 05:21:46;;;;;;;;;;;;;;;23.27;45.04;99167.28;4972944;28;871;-67
2022/08/01 05:24:12;;;;;;;;;;;;;;;23.46;43.54;99167.59;4955636;28;827;-67
2022/08/01 05:26:39;;;;;;;;;;;;;;;23.64;43.09;99164.31;4972863;28;819;-67
2022/08/01 05:29:06;;;;;;;;;;;;;;;23.76;42.14;99165.94;4972796;28;914;-67
2022/08/01 05:31:36;;;;;;;;;;;;;;;23.90;41.74;99160.56;4955448;28;1325;-67
2022/08/01 05:46:14;;;;;;;;;;;;;;;25.14;38.34;99155.63;4972040;28;1281;-68
2022/08/01 05:48:40;;;;;;;;;;;;;;;25.81;36.78;99159.44;4973918;28;836;-66
2022/08/01 05:51:06;;;;;;;;;;;;;;;26.76;35.14;99160.03;4976550;28;1977;-67
2022/08/01 05:53:36;;;;;;;;;;;;;;;27.34;33.27;99151.16;4976575;28;834;-67
2022/08/01 05:56:04;;;;;;;;;;;;;;;27.57;33.26;99145.16;4977100;28;799;-67
2022/08/01 05:58:31;;;;;;;;;;;;;;;28.29;31.94;99145.41;4976484;28;835;-68
2022/08/01 06:00:58;;;;;;;;;;;;;;;29.25;31.29;99141.63;4976485;28;917;-68
2022/08/01 06:03:26;;;;;;;;;;;;;;;29.31;29.46;99139.41;4976303;28;804;-68
2022/08/01 06:05:52;;;;;;;;;;;;;;;29.35;29.94;99138.31;4976399;28;819;-67
2022/08/01 06:08:21;;;;;;;;;;;;;;;29.35;29.50;99141.16;4976242;28;825;-68
2022/08/01 06:13:55;;;;;;;;;;;;;;;29.03;29.58;99148.50;4976226;28;617;-67
2022/08/01 06:16:24;;;;;;;;;;;;;;;29.30;29.14;99149.28;4976135;28;870;-68
2022/08/01 06:18:50;;;;;;;;;;;;;;;29.66;29.28;99147.97;4976168;28;784;-67
2022/08/01 06:21:17;;;;;;;;;;;;;;;29.98;28.47;99147.81;4976030;28;886;-68
2022/08/01 06:23:44;;;;;;;;;;;;;;;29.56;28.36;99138.41;4975966;28;894;-68
2022/08/01 06:26:10;;;;;;;;;;;;;;;29.65;28.41;99137.94;4975967;28;855;-69
2022/08/01 06:28:36;;;;;;;;;;;;;;;29.53;28.41;99131.69;4976289;28;835;-70
2022/08/01 06:31:03;;;;;;;;;;;;;;;29.21;28.69;99129.03;4975665;28;1891;-69
2022/08/01 06:33:36;;;;;;;;;;;;;;;29.38;28.65;99126.63;4975855;28;836;-71
2022/08/01 06:36:03;;;;;;;;;;;;;;;29.51;28.35;99132.28;4976373;28;851;-69
2022/08/01 06:39:02;;;;;;;;;;;;;;;29.73;27.78;99135.97;4976155;28;847;-72
2022/08/01 06:41:33;;;;;;;;;;;;;;;29.46;27.99;99121.75;4957937;28;1349;-67
2022/08/01 06:44:02;;;;;;;;;;;;;;;30.04;27.33;99122.81;4975756;28;823;-68
2022/08/01 06:46:34;;;;;;;;;;;;;;;30.21;27.13;99130.91;4977561;28;1367;-68
2022/08/01 06:49:01;;;;;;;;;;;;;;;30.52;27.34;99129.13;4975773;28;843;-66
2022/08/01 06:51:32;;;;;;;;;;;;;;;31.07;25.97;99128.19;4975767;28;1965;-68
2022/08/01 06:53:57;;;;;;;;;;;;;;;31.08;26.10;99126.84;4975504;28;827;-67
2022/08/01 06:56:24;;;;;;;;;;;;;;;31.80;26.08;99130.22;4975706;28;896;-69
2022/08/01 06:58:51;;;;;;;;;;;;;;;32.35;25.21;99127.66;4975700;28;898;-68
2022/08/01 07:01:17;;;;;;;;;;;;;;;33.01;24.48;99130.84;4974798;28;844;-67
2022/08/01 07:03:44;;;;;;;;;;;;;;;33.18;23.83;99126.59;4975366;28;894;-68
2022/08/01 07:06:11;;;;;;;;;;;;;;;32.93;24.20;99122.25;4975293;28;881;-69
2022/08/01 07:08:37;;;;;;;;;;;;;;;32.65;24.63;99111.06;4975254;28;792;-68
2022/08/01 07:11:04;;;;;;;;;;;;;;;32.18;24.45;99118.09;4975243;28;1886;-67
2022/08/01 07:13:30;;;;;;;;;;;;;;;31.61;25.54;99119.88;4975247;28;842;-69
2022/08/01 07:15:58;;;;;;;;;;;;;;;31.58;25.49;99118.16;4975304;28;1066;-67
2022/08/01 07:18:25;;;;;;;;;;;;;;;31.64;26.10;99115.13;4975299;28;934;-68
2022/08/01 07:24:13;;;;;;;;;;;;;;;33.21;23.91;99105.44;4975070;28;610;-68
2022/08/01 07:26:43;;;;;;;;;;;;;;;33.03;24.12;99113.06;4974901;28;894;-67
2022/08/01 07:29:10;;;;;;;;;;;;;;;33.45;24.64;99103.97;4974920;28;893;-68
2022/08/01 07:31:37;;;;;;;;;;;;;;;33.80;23.95;99104.97;4974881;28;1043;-67
2022/08/01 07:34:04;;;;;;;;;;;;;;;33.66;23.44;99106.56;4974839;28;946;-69
2022/08/01 07:36:30;;;;;;;;;;;;;;;33.86;23.70;99105.47;4974821;28;851;-69
2022/08/01 07:38:56;;;;;;;;;;;;;;;33.68;23.58;99098.91;4974624;28;910;-67
2022/08/01 07:41:22;;;;;;;;;;;;;;;33.49;23.51;99098.63;4974576;28;831;-68
2022/08/01 07:43:48;;;;;;;;;;;;;;;33.49;23.68;99098.63;4974617;28;882;-68
2022/08/01 07:46:17;;;;;;;;;;;;;;;33.41;23.62;99089.28;4974403;28;893;-67
2022/08/01 07:48:45;;;;;;;;;;;;;;;33.38;23.99;99101.91;4955208;29;851;-70
2022/08/01 07:51:38;;;;;;;;;;;;;;;33.55;23.91;99105.63;4955180;29;1971;-68
2022/08/01 07:54:06;;;;;;;;;;;;;;;33.39;23.29;99095.59;4955035;29;835;-68
2022/08/01 07:56:33;;;;;;;;;;;;;;;33.04;24.41;99101.06;4955312;29;863;-68
2022/08/01 07:59:02;;;;;;;;;;;;;;;33.22;23.94;99089.75;4955262;29;978;-68
2022/08/01 08:01:29;;;;;;;;;;;;;;;33.36;24.00;99094.66;4955280;29;808;-68
2022/08/01 08:03:55;;;;;;;;;;;;;;;33.61;24.15;99096.88;4954997;29;823;-68
2022/08/01 08:06:22;;;;;;;;;;;;;;;34.00;23.66;99097.38;4955165;29;875;-68
2022/08/01 08:09:03;;;;;;;;;;;;;;;34.00;23.66;99091.63;4954992;29;871;-69
2022/08/01 08:11:33;;;;;;;;;;;;;;;33.43;24.10;99095.19;4954108;28;1899;-67
2022/08/01 08:26:11;;;;;;;;;;;;;;;34.02;23.54;99093.94;4954826;29;665;-68
2022/08/01 08:40:49;;;;;;;;;;;;;;;33.36;23.88;99091.03;4954439;29;645;-69
2022/08/01 08:43:16;;;;;;;;;;;;;;;33.77;23.71;99094.66;4952926;29;1344;-67
2022/08/01 08:45:43;;;;;;;;;;;;;;;33.41;23.77;99103.63;4954190;29;852;-69
2022/08/01 08:48:09;;;;;;;;;;;;;;;33.55;23.71;99102.03;4967335;28;1289;-70
2022/08/01 08:50:36;;;;;;;;;;;;;;;32.87;24.44;99113.13;4972589;28;1973;-67
2022/08/01 08:53:04;;;;;;;;;;;;;;;32.56;24.68;99103.81;4973351;28;854;-67
2022/08/01 08:55:31;;;;;;;;;;;;;;;32.50;25.26;99106.09;4973430;28;870;-68
2022/08/01 08:57:59;;;;;;;;;;;;;;;32.32;25.33;99099.44;4973299;28;874;-68
2022/08/01 09:00:25;;;;;;;;;;;;;;;32.20;25.18;99098.28;4973274;28;828;-67
2022/08/01 09:02:55;;;;;;;;;;;;;;;32.37;25.00;99092.00;4973127;28;830;-67
2022/08/01 09:05:25;;;;;;;;;;;;;;;32.54;24.75;99100.78;4973244;28;835;-67
2022/08/01 09:07:52;;;;;;;;;;;;;;;31.60;25.94;99089.81;4971804;28;1313;-67
2022/08/01 09:10:20;;;;;;;;;;;;;;;30.01;28.34;99094.66;4972941;28;1944;-67
2022/08/01 09:13:13;;;;;;;;;;;;;;;30.87;27.76;99100.47;4973024;28;1281;-67
2022/08/01 09:28:01;;;;;;;;;;;;;;;32.54;24.84;99084.38;4973156;28;731;-69
2022/08/01 09:30:27;;;;;;;;;;;;;;;32.43;25.68;99078.25;4972788;28;1902;-68
2022/08/01 09:32:58;;;;;;;;;;;;;;;32.39;25.64;99080.75;4973209;28;923;-67
2022/08/01 09:35:26;;;;;;;;;;;;;;;32.08;25.67;99077.91;4973184;28;791;-67
2022/08/01 09:38:11;;;;;;;;;;;;;;;31.84;26.97;99082.81;4971379;28;1157;-68
2022/08/01 09:40:53;;;;;;;;;;;;;;;32.26;25.94;99088.19;4971452;28;1344;-68
2022/08/01 09:46:23;;;;;;;;;;;;;;;30.05;28.22;99087.28;4972569;28;1170;-68
2022/08/01 10:01:00;;;;;;;;;;;;;;;31.14;27.87;99084.66;4953643;29;630;-67
2022/08/01 10:32:14;;;;;;;;;;;;;;;30.93;27.95;99107.56;5946939;23;1666;-67
2022/08/01 10:34:41;;;;;;;;;;;;;;;30.76;28.39;99098.69;4991580;28;1178;-68
2022/08/01 10:37:07;;;;;;;;;;;;;;;31.28;28.07;99082.44;4995066;28;870;-68
2022/08/01 10:39:34;;;;;;;;;;;;;;;31.99;27.50;99087.03;4995240;28;861;-67
2022/08/01 10:42:01;;;;;;;;;;;;;;;32.30;27.37;99084.94;4995169;28;904;-68
2022/08/01 10:44:30;;;;;;;;;;;;;;;31.61;27.11;99087.72;4995102;28;945;-67
2022/08/01 10:47:17;;;;;;;;;;;;;;;30.67;27.89;99102.81;4995821;28;764;-68
2022/08/01 10:49:47;;;;;;;;;;;;;;;31.03;28.05;99095.63;4995166;28;1902;-68
2022/08/01 11:04:43;;;;;;;;;;;;;;;30.81;28.69;99097.00;4994881;28;640;-67
2022/08/01 11:07:21;;;;;;;;;;;;;;;30.96;28.26;99091.44;4994670;28;2035;-69
2022/08/01 11:10:38;;;;;;;;;;;;;;;31.13;28.17;99096.63;4992447;28;1956;-70
2022/08/01 11:13:07;;;;;;;;;;;;;;;31.71;27.71;99095.16;4977264;28;1575;-68
2022/08/01 11:15:36;;;;;;;;;;;;;;;32.22;27.21;99092.75;4994662;28;866;-69
2022/08/01 11:18:43;;;;;;;;;;;;;;;32.53;26.34;99094.28;4977114;28;1417;-68
2022/08/01 11:21:10;;;;;;;;;;;;;;;32.62;26.30;99089.31;4934437;29;1434;-68
2022/08/01 11:23:56;;;;;;;;;;;;;;;33.08;26.60;99089.25;4934498;29;804;-68
2022/08/01 11:29:24;;;;;;;;;;;;;;;32.06;26.08;99092.75;4934234;29;1878;-68
2022/08/01 11:45:06;;;;;;;;;;;;;;;31.94;26.94;99083.78;4931692;29;1430;-68
2022/08/01 11:47:54;;;;;;;;;;;;;;;31.05;27.92;99082.34;4932620;29;986;-67
2022/08/01 11:50:38;;;;;;;;;;;;;;;30.36;29.19;99081.88;4934023;29;1915;-68
2022/08/01 11:53:06;;;;;;;;;;;;;;;30.65;29.13;99081.88;4993986;28;807;-67
2022/08/01 11:58:38;;;;;;;;;;;;;;;32.75;26.22;99077.66;4993855;28;622;-67
2022/08/01 12:01:04;;;;;;;;;;;;;;;32.69;27.07;99077.09;4993568;28;862;-68
2022/08/01 12:03:40;;;;;;;;;;;;;;;33.40;25.40;99068.50;4993725;28;838;-67
2022/08/01 12:06:39;;;;;;;;;;;;;;;34.47;24.76;99063.38;4993644;28;863;-68
2022/08/01 12:09:21;;;;;;;;;;;;;;;35.16;24.08;99074.91;4993558;28;815;-68
2022/08/01 12:11:48;;;;;;;;;;;;;;;35.73;23.24;99058.63;4993487;28;1882;-68
2022/08/01 12:14:21;;;;;;;;;;;;;;;36.98;22.91;99056.69;4993495;28;897;-68
2022/08/01 12:16:56;;;;;;;;;;;;;;;37.11;22.06;99061.25;4993436;28;895;-68
2022/08/01 12:22:26;;;;;;;;;;;;;;;35.50;22.59;99052.44;4993447;28;657;-68
2022/08/01 12:24:54;;;;;;;;;;;;;;;35.45;22.88;99053.47;4993291;28;892;-71
2022/08/01 12:27:29;;;;;;;;;;;;;;;35.99;22.80;99051.31;4993233;28;826;-69
2022/08/01 12:29:59;;;;;;;;;;;;;;;36.73;21.82;99044.72;4993223;28;1886;-69
2022/08/01 12:35:36;;;;;;;;;;;;;;;36.37;22.19;99047.06;4993302;28;952;-68
2022/08/01 12:38:03;;;;;;;;;;;;;;;35.98;22.38;99055.56;4975623;28;1301;-69
2022/08/01 12:40:31;;;;;;;;;;;;;;;36.58;21.69;99039.97;4993075;28;877;-70
2022/08/01 12:43:02;;;;;;;;;;;;;;;37.13;21.41;99028.97;4992927;28;1025;-69
2022/08/01 12:45:32;;;;;;;;;;;;;;;37.48;21.10;99040.84;4992769;28;1360;-68
2022/08/01 12:47:59;;;;;;;;;;;;;;;37.45;21.58;99036.31;4975453;28;1391;-68
2022/08/01 12:53:33;;;;;;;;;;;;;;;37.27;21.88;99032.84;4992889;28;640;-68
2022/08/01 12:56:04;;;;;;;;;;;;;;;37.25;21.25;99040.59;4992711;28;795;-69
2022/08/01 12:58:56;;;;;;;;;;;;;;;36.87;22.17;99036.38;4992244;28;846;-68
2022/08/01 13:01:28;;;;;;;;;;;;;;;36.28;22.74;99039.19;4992643;28;839;-68
2022/08/01 13:04:17;;;;;;;;;;;;;;;36.44;22.28;99033.13;4992649;28;905;-68
2022/08/01 13:06:47;;;;;;;;;;;;;;;36.55;22.40;99023.91;4992677;28;898;-70
2022/08/01 13:09:13;;;;;;;;;;;;;;;36.89;22.47;99030.75;4992407;28;914;-69
2022/08/01 13:11:46;;;;;;;;;;;;;;;36.91;22.29;99030.91;4992454;28;1910;-67
2022/08/01 13:14:32;;;;;;;;;;;;;;;37.04;21.66;99038.31;4992742;28;909;-68
2022/08/01 13:16:59;;;;;;;;;;;;;;;37.49;21.79;99042.38;4992226;28;1243;-68
2022/08/01 13:22:35;;;;;;;;;;;;;;;36.75;21.58;99033.34;4991926;28;1088;-68
2022/08/01 13:25:14;;;;;;;;;;;;;;;36.27;21.93;99036.91;4992316;28;839;-68
2022/08/01 13:28:18;;;;;;;;;;;;;;;36.80;21.78;99040.91;4992423;28;866;-68
2022/08/01 13:31:04;;;;;;;;;;;;;;;34.96;23.40;99044.50;4980759;28;1882;-68
2022/08/01 13:33:47;;;;;;;;;;;;;;;35.20;23.97;99036.38;4974737;28;1151;-69
2022/08/01 13:36:14;;;;;;;;;;;;;;;35.08;23.86;99036.88;4992206;28;807;-69
2022/08/01 13:41:44;;;;;;;;;;;;;;;35.25;23.53;99046.84;4992256;28;625;-68
2022/08/01 13:44:15;;;;;;;;;;;;;;;35.34;23.37;99049.03;4992044;28;1242;-68
2022/08/01 13:46:47;;;;;;;;;;;;;;;35.31;23.83;99039.47;4992400;28;838;-67
2022/08/01 13:49:14;;;;;;;;;;;;;;;35.26;24.05;99039.75;4992081;28;1008;-67
2022/08/01 13:52:19;;;;;;;;;;;;;;;35.96;23.47;99040.28;4991934;28;1967;-69
2022/08/01 13:54:47;;;;;;;;;;;;;;;35.98;23.32;99037.56;4989578;28;1206;-68
2022/08/01 13:57:35;;;;;;;;;;;;;;;36.18;24.00;99032.63;4992175;28;795;-70
2022/08/01 14:00:02;;;;;;;;;;;;;;;36.12;23.68;99032.13;4991848;28;861;-67
2022/08/01 14:02:29;;;;;;;;;;;;;;;35.77;23.64;99027.34;4974518;28;1209;-68
2022/08/01 14:04:58;;;;;;;;;;;;;;;35.35;24.56;99033.28;4991904;28;852;-68
2022/08/01 14:07:25;;;;;;;;;;;;;;;34.77;25.18;99040.09;4991951;28;827;-68
2022/08/01 14:09:53;;;;;;;;;;;;;;;34.29;25.99;99033.88;4991794;28;1965;-68
2022/08/01 14:12:30;;;;;;;;;;;;;;;34.50;25.89;99037.13;4978323;28;1395;-67
2022/08/01 14:14:57;;;;;;;;;;;;;;;34.69;25.95;99035.81;4995678;28;982;-69
2022/08/01 14:29:35;;;;;;;;;;;;;;;33.22;28.15;99036.13;4995857;28;1961;-68
2022/08/01 14:32:02;;;;;;;;;;;;;;;33.11;28.40;99037.31;4995756;28;1033;-68
2022/08/01 14:34:29;;;;;;;;;;;;;;;32.94;29.27;99045.75;4995532;28;851;-68
2022/08/01 14:36:57;;;;;;;;;;;;;;;32.77;28.77;99048.47;4995530;28;815;-68
2022/08/01 14:39:44;;;;;;;;;;;;;;;32.18;29.89;99038.06;4995340;28;838;-69
2022/08/01 14:42:14;;;;;;;;;;;;;;;31.98;30.29;99042.63;4977816;28;1564;-67
2022/08/01 14:44:40;;;;;;;;;;;;;;;31.69;30.49;99045.66;4994526;28;1308;-68
2022/08/01 14:47:07;;;;;;;;;;;;;;;31.58;30.65;99038.22;4995458;28;846;-68
2022/08/01 14:49:34;;;;;;;;;;;;;;;31.74;30.86;99044.69;4994970;28;1910;-68
2022/08/01 14:52:01;;;;;;;;;;;;;;;32.04;30.75;99041.13;4995037;28;933;-68
2022/08/01 14:54:28;;;;;;;;;;;;;;;32.01;30.79;99042.28;4977495;28;1260;-69
2022/08/01 14:56:54;;;;;;;;;;;;;;;32.14;30.63;99036.34;4994998;28;819;-69
2022/08/01 14:59:21;;;;;;;;;;;;;;;31.99;31.34;99041.31;4994750;28;904;-69
2022/08/01 15:01:48;;;;;;;;;;;;;;;31.67;31.42;99039.75;4994945;28;847;-68
2022/08/01 15:04:15;;;;;;;;;;;;;;;30.85;32.07;99043.97;4994849;28;1091;-68
2022/08/01 15:06:40;;;;;;;;;;;;;;;30.09;33.22;99058.47;4994888;28;854;-69
2022/08/01 15:09:10;;;;;;;;;;;;;;;30.17;32.93;99052.81;4995091;28;881;-67
2022/08/01 15:11:37;;;;;;;;;;;;;;;30.88;32.22;99053.53;4994714;28;1898;-68
2022/08/01 15:16:50;;;;;;;;;;;;;;;31.65;31.02;99045.25;4994646;28;696;-68
2022/08/01 15:19:23;;;;;;;;;;;;;;;32.21;30.63;99045.50;4994653;28;787;-67
2022/08/01 15:21:49;;;;;;;;;;;;;;;32.41;30.18;99041.69;4994125;28;819;-68
2022/08/01 15:36:29;;;;;;;;;;;;;;;32.65;29.88;99045.28;4994565;28;669;-67
2022/08/01 15:39:00;;;;;;;;;;;;;;;32.85;29.75;99043.50;4994291;28;831;-67
2022/08/01 15:41:27;;;;;;;;;;;;;;;32.67;29.26;99040.50;4994110;28;865;-68
2022/08/01 15:43:53;;;;;;;;;;;;;;;32.21;29.81;99049.13;4993979;28;1033;-68
2022/08/01 15:46:28;;;;;;;;;;;;;;;31.42;31.43;99048.78;4994037;28;914;-67
2022/08/01 15:48:54;;;;;;;;;;;;;;;30.35;33.14;99054.69;4993928;28;922;-67
2022/08/01 15:51:22;;;;;;;;;;;;;;;29.59;34.84;99055.47;4993916;28;1972;-68
2022/08/01 15:53:49;;;;;;;;;;;;;;;29.20;35.50;99059.22;4993830;28;807;-68
2022/08/01 15:56:14;;;;;;;;;;;;;;;29.01;35.91;99056.50;4993826;28;885;-70
2022/08/01 15:58:41;;;;;;;;;;;;;;;28.83;36.20;99067.44;4993664;28;894;-68
2022/08/01 16:01:07;;;;;;;;;;;;;;;28.52;37.07;99056.97;4976332;28;910;-68
2022/08/01 16:03:34;;;;;;;;;;;;;;;28.29;37.43;99072.31;4993724;28;898;-68
2022/08/01 16:06:02;;;;;;;;;;;;;;;28.16;37.91;99065.84;4993683;28;819;-69
2022/08/01 16:08:28;;;;;;;;;;;;;;;28.07;37.80;99081.22;4993649;28;901;-68
2022/08/01 16:10:55;;;;;;;;;;;;;;;27.98;37.89;99088.06;4993532;28;1894;-68
2022/08/01 16:13:22;;;;;;;;;;;;;;;27.94;38.14;99081.94;4993597;28;889;-68
2022/08/01 16:15:48;;;;;;;;;;;;;;;27.93;38.19;99079.63;4993579;28;875;-69